Time;durP1;ratioP1;P1;durP2;ratioP2;P2;SDS_P1;SDS_P2;PMS_P1;PMS_P2;Temp;Humidity;BMP_temperature;BMP_pressure;BME280_temperature;BME280_humidity;BME280_pressure;Samples;Min_cycle;Max_cycle;Signal;HPM_P1;HPM_P2
2023/07/02 00:02:06;;;;;;;15.38;6.45;;;;;;;21.05;73.38;99245.53;4889859;29;20513;-88
2023/07/02 00:04:33;;;;;;;15.45;6.00;;;;;;;21.02;73.02;99246.78;4884480;29;20103;-88
2023/07/02 00:07:00;;;;;;;10.90;5.30;;;;;;;21.01;73.54;99252.41;4869679;29;20060;-88
2023/07/02 00:09:27;;;;;;;15.75;6.43;;;;;;;21.00;73.19;99246.19;4859713;29;20048;-88
2023/07/02 00:11:54;;;;;;;12.57;6.03;;;;;;;21.00;73.01;99254.28;4861570;29;20123;-88
2023/07/02 00:14:21;;;;;;;12.80;6.10;;;;;;;20.96;73.18;99257.63;4855890;29;20044;-88
2023/07/02 00:16:48;;;;;;;16.60;6.35;;;;;;;20.94;73.07;99257.00;4843464;29;20056;-87
2023/07/02 00:19:15;;;;;;;14.93;6.65;;;;;;;20.95;72.87;99262.19;4873501;29;20438;-87
2023/07/02 00:21:42;;;;;;;15.68;6.65;;;;;;;20.97;72.60;99262.00;4872676;29;20052;-88
2023/07/02 00:24:09;;;;;;;13.02;6.22;;;;;;;20.92;72.57;99261.81;4881368;29;20778;-88
2023/07/02 00:26:37;;;;;;;12.93;5.95;;;;;;;20.90;72.57;99264.72;4872387;29;20053;-87
2023/07/02 00:29:06;;;;;;;12.15;6.28;;;;;;;20.86;72.52;99268.88;4852190;29;20040;-88
2023/07/02 00:31:33;;;;;;;10.32;5.72;;;;;;;20.81;72.50;99268.72;4852615;29;20060;-88
2023/07/02 00:34:01;;;;;;;10.48;5.47;;;;;;;20.78;72.21;99271.84;4846231;29;20048;-88
2023/07/02 00:36:31;;;;;;;9.77;5.93;;;;;;;20.72;72.26;99272.72;4860235;29;20123;-88
2023/07/02 00:38:58;;;;;;;15.43;5.63;;;;;;;20.74;72.45;99265.25;4863178;29;20052;-88
2023/07/02 00:41:26;;;;;;;10.80;5.38;;;;;;;20.73;72.10;99267.09;4867079;29;20051;-88
2023/07/02 00:43:55;;;;;;;14.60;6.22;;;;;;;20.74;72.04;99276.03;4856357;29;20417;-88
2023/07/02 00:46:24;;;;;;;11.13;5.68;;;;;;;20.73;72.01;99268.97;4855430;29;20041;-88
2023/07/02 00:48:54;;;;;;;19.40;5.82;;;;;;;20.71;72.04;99262.97;4884186;29;20412;-89
2023/07/02 00:51:22;;;;;;;11.45;5.63;;;;;;;20.71;72.26;99271.06;4873357;29;20044;-88
2023/07/02 00:53:50;;;;;;;12.23;6.10;;;;;;;20.71;72.19;99276.44;4886669;29;20064;-88
2023/07/02 00:56:17;;;;;;;10.75;6.55;;;;;;;20.71;72.17;99277.31;4889181;29;20045;-88
2023/07/02 00:58:50;;;;;;;12.23;5.40;;;;;;;20.71;72.24;99271.91;4860571;29;20049;-88
2023/07/02 01:01:18;;;;;;;11.35;5.88;;;;;;;20.70;72.40;99274.81;4856337;29;20078;-87
2023/07/02 01:04:07;;;;;;;10.00;5.75;;;;;;;20.58;72.96;99272.78;4891453;29;20395;-88
2023/07/02 01:06:35;;;;;;;12.00;5.82;;;;;;;20.70;72.56;99280.19;4873424;29;20057;-88
2023/07/02 01:09:04;;;;;;;11.45;5.88;;;;;;;20.70;72.47;99281.03;4880274;29;20885;-87
2023/07/02 01:11:46;;;;;;;9.77;5.72;;;;;;;20.69;72.70;99271.28;4863842;29;20056;-88
2023/07/02 01:14:23;;;;;;;12.27;6.05;;;;;;;20.69;72.69;99287.47;4846413;29;20066;-88
2023/07/02 01:16:51;;;;;;;14.52;6.20;;;;;;;20.67;72.88;99281.47;4892297;29;20850;-88
2023/07/02 01:19:22;;;;;;;13.80;5.47;;;;;;;20.66;73.14;99278.97;4856585;29;20060;-87
2023/07/02 01:21:49;;;;;;;19.15;6.55;;;;;;;20.69;72.88;99275.84;4857884;29;20049;-87
2023/07/02 01:24:17;;;;;;;18.05;5.88;;;;;;;20.70;73.04;99275.63;4859879;29;20591;-88
2023/07/02 01:26:45;;;;;;;14.18;5.63;;;;;;;20.69;73.06;99273.16;4876637;29;20481;-88
2023/07/02 01:29:21;;;;;;;15.80;6.03;;;;;;;20.62;73.42;99277.75;4876643;29;20044;-87
2023/07/02 01:31:48;;;;;;;12.27;6.05;;;;;;;20.69;73.24;99278.56;4877225;29;20501;-88
2023/07/02 01:34:14;;;;;;;17.60;6.40;;;;;;;20.69;72.80;99282.06;4874749;29;20148;-88
2023/07/02 01:36:41;;;;;;;16.75;5.30;;;;;;;20.69;72.60;99276.69;4869963;29;20063;-88
2023/07/02 01:39:08;;;;;;;12.23;6.07;;;;;;;20.68;72.83;99275.00;4879162;29;20600;-88
2023/07/02 01:41:50;;;;;;;13.80;6.07;;;;;;;20.61;72.65;99276.94;4873909;29;20796;-87
2023/07/02 01:44:17;;;;;;;15.40;6.25;;;;;;;20.71;72.34;99279.16;4853634;29;20052;-87
2023/07/02 01:46:48;;;;;;;14.98;5.95;;;;;;;20.68;72.61;99277.69;4876835;29;20064;-87
2023/07/02 01:49:16;;;;;;;12.25;5.35;;;;;;;20.68;72.61;99280.41;4871729;29;20139;-87
2023/07/02 01:51:52;;;;;;;13.13;6.95;;;;;;;20.65;72.83;99277.31;4865311;29;20060;-88
2023/07/02 01:54:20;;;;;;;14.25;5.65;;;;;;;20.68;72.53;99287.69;4887471;29;20124;-88
2023/07/02 01:56:47;;;;;;;10.15;5.32;;;;;;;20.69;72.53;99286.66;4877681;29;20416;-88
2023/07/02 01:59:14;;;;;;;12.43;5.72;;;;;;;20.69;72.81;99289.34;4878510;29;20059;-88
2023/07/02 02:01:41;;;;;;;19.00;6.22;;;;;;;20.69;72.72;99292.03;4875862;29;20789;-88
2023/07/02 02:04:09;;;;;;;12.00;6.47;;;;;;;20.68;72.78;99293.06;4860291;29;20063;-87
2023/07/02 02:06:36;;;;;;;10.88;6.10;;;;;;;20.67;73.10;99291.44;4864388;29;20059;-88
2023/07/02 02:09:05;;;;;;;15.63;6.13;;;;;;;20.69;72.84;99295.56;4877012;29;20040;-88
2023/07/02 02:11:33;;;;;;;15.32;6.18;;;;;;;20.65;72.90;99298.91;4871584;29;20059;-87
2023/07/02 02:14:01;;;;;;;13.25;6.75;;;;;;;20.63;73.21;99296.41;4878753;29;20057;-88
2023/07/02 02:16:28;;;;;;;13.18;5.72;;;;;;;20.62;73.08;99299.34;4893060;29;20104;-88
2023/07/02 02:18:55;;;;;;;14.93;5.80;;;;;;;20.62;73.46;99302.84;4872166;29;20054;-88
2023/07/02 02:21:22;;;;;;;12.43;6.07;;;;;;;20.62;73.38;99302.84;4891944;29;20076;-88
2023/07/02 02:23:49;;;;;;;11.43;5.50;;;;;;;20.62;73.01;99302.03;4859653;29;20055;-88
2023/07/02 02:26:16;;;;;;;18.48;6.13;;;;;;;20.62;73.15;99297.47;4869813;29;20061;-87
2023/07/02 02:28:42;;;;;;;14.85;5.65;;;;;;;20.63;72.95;99300.97;4861136;29;20052;-88
2023/07/02 02:31:09;;;;;;;13.27;5.93;;;;;;;20.62;72.95;99299.34;4856961;29;20547;-87
2023/07/02 02:33:37;;;;;;;13.93;5.65;;;;;;;20.60;73.03;99300.34;4873387;29;20127;-88
2023/07/02 02:36:05;;;;;;;13.05;6.28;;;;;;;20.60;73.42;99308.44;4872010;29;20057;-88
2023/07/02 02:38:33;;;;;;;20.17;6.43;;;;;;;20.59;73.62;99304.09;4850451;29;20083;-88
2023/07/02 02:41:03;;;;;;;17.35;6.55;;;;;;;20.57;73.92;99308.06;4869679;29;20044;-88
2023/07/02 02:43:34;;;;;;;15.93;6.18;;;;;;;20.56;74.08;99299.16;4861273;29;20044;-87
2023/07/02 02:46:02;;;;;;;14.32;6.30;;;;;;;20.55;74.20;99315.53;4858738;29;20130;-87
2023/07/02 02:48:29;;;;;;;12.52;5.88;;;;;;;20.55;74.01;99304.75;4880856;29;20054;-88
2023/07/02 02:50:56;;;;;;;13.77;5.75;;;;;;;20.53;74.22;99304.09;4863961;29;20056;-87
2023/07/02 02:53:23;;;;;;;12.05;5.45;;;;;;;20.51;74.25;99304.31;4858206;29;20037;-88
2023/07/02 02:55:49;;;;;;;15.20;5.70;;;;;;;20.52;74.13;99295.19;4874389;29;20396;-88
2023/07/02 02:58:16;;;;;;;15.25;6.28;;;;;;;20.51;74.54;99293.53;4877693;29;20741;-88
2023/07/02 03:00:45;;;;;;;14.80;5.85;;;;;;;20.51;74.39;99298.94;4877137;29;20456;-88
2023/07/02 03:03:13;;;;;;;20.55;6.28;;;;;;;20.50;74.33;99297.25;4857961;29;20052;-87
2023/07/02 03:05:40;;;;;;;15.93;6.50;;;;;;;20.50;74.31;99308.03;4865870;29;20056;-87
2023/07/02 03:08:06;;;;;;;15.43;6.15;;;;;;;20.49;74.43;99309.09;4859425;29;20135;-87
2023/07/02 03:10:33;;;;;;;16.05;6.47;;;;;;;20.48;74.11;99309.31;4895513;29;20131;-87
2023/07/02 03:13:00;;;;;;;11.98;6.03;;;;;;;20.47;74.36;99307.66;4875385;29;20111;-87
2023/07/02 03:15:27;;;;;;;13.93;6.50;;;;;;;20.46;73.93;99314.09;4899252;29;20116;-88
2023/07/02 03:17:54;;;;;;;15.40;6.65;;;;;;;20.44;74.13;99310.78;4857605;29;20056;-88
2023/07/02 03:20:27;;;;;;;17.95;6.03;;;;;;;20.40;74.61;99313.06;4873057;29;20044;-88
2023/07/02 03:22:53;;;;;;;;;;;;;;;20.20;75.48;99320.38;4868136;29;20080;-87
2023/07/02 03:25:20;;;;;;;17.23;6.32;;;;;;;20.35;74.36;99311.03;4866705;29;19923;-88
2023/07/02 03:27:47;;;;;;;14.60;6.72;;;;;;;20.36;73.73;99307.28;4890648;29;20053;-86
2023/07/02 03:30:14;;;;;;;19.02;6.80;;;;;;;20.38;73.14;99315.16;4862292;29;20132;-87
2023/07/02 03:32:41;;;;;;;19.67;6.95;;;;;;;20.37;72.74;99311.63;4889498;29;20080;-87
2023/07/02 03:35:07;;;;;;;20.77;7.22;;;;;;;20.35;72.78;99320.97;4874749;29;20571;-87
2023/07/02 03:37:34;;;;;;;18.98;7.88;;;;;;;20.35;72.33;99321.81;4886402;29;20044;-87
2023/07/02 03:40:01;;;;;;;26.70;9.93;;;;;;;20.36;71.97;99320.75;4874647;29;20066;-87
2023/07/02 03:42:28;;;;;;;29.23;8.95;;;;;;;20.31;71.49;99319.75;4885845;29;20496;-87
2023/07/02 03:44:54;;;;;;;23.98;8.05;;;;;;;20.33;71.48;99323.88;4884944;29;20155;-87
2023/07/02 03:47:21;;;;;;;24.75;8.45;;;;;;;20.35;71.37;99323.66;4894052;29;20040;-87
2023/07/02 03:49:48;;;;;;;23.88;8.65;;;;;;;20.32;71.37;99334.88;4875004;29;20070;-86
2023/07/02 03:52:15;;;;;;;25.75;9.77;;;;;;;20.31;71.24;99336.75;4884090;29;20149;-87
2023/07/02 03:54:42;;;;;;;28.48;9.57;;;;;;;20.32;70.86;99345.66;4882014;29;20112;-87
2023/07/02 03:57:09;;;;;;;34.95;10.18;;;;;;;20.30;70.29;99356.66;4860457;29;20049;-87
2023/07/02 03:59:35;;;;;;;31.00;10.30;;;;;;;20.29;70.91;99352.28;4877045;29;20108;-87
2023/07/02 04:02:02;;;;;;;29.58;9.88;;;;;;;20.28;70.15;99355.22;4856699;29;20040;-87
2023/07/02 04:04:29;;;;;;;28.23;9.70;;;;;;;20.23;70.49;99350.47;4886762;29;20128;-88
2023/07/02 04:06:56;;;;;;;29.23;9.80;;;;;;;20.23;70.49;99350.47;4887056;29;20140;-88
2023/07/02 04:09:23;;;;;;;31.75;10.23;;;;;;;20.29;70.42;99362.25;4886799;29;20052;-87
2023/07/02 04:11:50;;;;;;;40.88;11.57;;;;;;;20.29;70.51;99359.56;4880185;29;20489;-87
2023/07/02 04:14:17;;;;;;;37.38;10.98;;;;;;;20.29;69.82;99354.16;4887155;29;20543;-87
2023/07/02 04:16:45;;;;;;;32.25;10.32;;;;;;;20.29;69.69;99362.25;4876167;29;20060;-87
2023/07/02 04:19:11;;;;;;;34.90;10.40;;;;;;;20.28;69.75;99363.31;4890583;29;20123;-87
2023/07/02 04:21:39;;;;;;;35.60;10.85;;;;;;;20.33;69.77;99369.72;4853835;29;20056;-88
2023/07/02 04:24:06;;;;;;;31.88;10.55;;;;;;;20.53;69.34;99366.97;4860156;29;20107;-87
2023/07/02 04:26:33;;;;;;;34.45;10.80;;;;;;;20.72;69.09;99364.47;4875911;29;20052;-87
2023/07/02 04:29:20;;;;;;;29.55;8.95;;;;;;;20.93;68.51;99366.03;4883507;29;20045;-87
2023/07/02 04:31:47;;;;;;;40.92;11.15;;;;;;;21.07;67.62;99373.03;4886209;29;20063;-87
2023/07/02 04:34:14;;;;;;;38.65;10.52;;;;;;;21.17;67.14;99376.09;4873255;29;20130;-88
2023/07/02 04:36:41;;;;;;;40.30;10.23;;;;;;;21.26;66.60;99373.94;4872829;29;20063;-88
2023/07/02 04:39:08;;;;;;;33.85;10.98;;;;;;;21.32;66.57;99370.41;4875077;29;20052;-88
2023/07/02 04:41:35;;;;;;;32.40;10.00;;;;;;;21.40;66.14;99377.44;4869644;29;20104;-88
2023/07/02 04:44:02;;;;;;;29.88;10.00;;;;;;;21.44;65.97;99384.88;4896986;29;20113;-88
2023/07/02 04:46:29;;;;;;;32.47;9.77;;;;;;;21.54;65.08;99386.28;4861630;29;20076;-88
2023/07/02 04:48:56;;;;;;;27.05;9.70;;;;;;;21.54;64.86;99386.28;4887444;29;20108;-87
2023/07/02 04:51:23;;;;;;;28.58;9.23;;;;;;;21.55;64.59;99382.53;4896102;29;20040;-88
2023/07/02 04:53:50;;;;;;;27.65;9.85;;;;;;;21.53;64.04;99388.16;4878045;29;20048;-88
2023/07/02 04:56:17;;;;;;;29.65;9.68;;;;;;;21.50;63.21;99388.59;4886460;29;20048;-87
2023/07/02 04:58:43;;;;;;;30.08;9.27;;;;;;;;;;4888438;29;20123;-88
2023/07/02 05:01:10;;;;;;;25.48;10.07;;;;;;;21.49;63.64;99396.91;4890504;29;20693;-87
2023/07/02 05:03:38;;;;;;;23.27;8.65;;;;;;;21.52;63.06;99399.19;4838308;29;20489;-88
2023/07/02 05:06:04;;;;;;;23.75;9.18;;;;;;;21.43;63.44;99396.75;4885092;29;20449;-87
2023/07/02 05:08:31;;;;;;;26.63;9.23;;;;;;;21.41;63.40;99395.31;4896703;29;20055;-88
2023/07/02 05:10:58;;;;;;;29.77;9.13;;;;;;;21.38;63.29;99388.47;4866450;29;20088;-88
2023/07/02 05:13:24;;;;;;;22.88;8.40;;;;;;;21.36;63.45;99395.91;4864145;29;20074;-87
2023/07/02 05:15:51;;;;;;;25.30;7.90;;;;;;;21.29;63.63;99391.59;4892276;29;20049;-87
2023/07/02 05:18:18;;;;;;;24.50;8.57;;;;;;;21.27;62.74;99391.84;4884736;29;20132;-87
2023/07/02 05:20:45;;;;;;;21.55;8.68;;;;;;;21.25;62.77;99388.50;4878876;29;20076;-87
2023/07/02 05:23:12;;;;;;;23.38;8.88;;;;;;;21.24;62.73;99394.94;4896058;29;20110;-87
2023/07/02 05:25:39;;;;;;;22.35;8.52;;;;;;;21.27;62.13;99405.34;4886751;29;20053;-87
2023/07/02 05:28:05;;;;;;;27.85;8.63;;;;;;;21.25;62.16;99404.72;4890569;29;20156;-87
2023/07/02 05:30:32;;;;;;;24.67;8.02;;;;;;;21.23;62.35;99402.22;4886731;29;20098;-87
2023/07/02 05:32:59;;;;;;;26.25;8.45;;;;;;;21.21;61.36;99398.91;4888348;29;20049;-87
2023/07/02 05:35:26;;;;;;;29.52;10.02;;;;;;;21.17;61.16;99407.66;4886483;29;20419;-87
2023/07/02 05:37:52;;;;;;;31.70;9.20;;;;;;;21.11;60.91;99412.03;4880437;29;20049;-82
2023/07/02 05:40:19;;;;;;;25.80;8.90;;;;;;;21.13;60.88;99411.84;4894833;29;20052;-83
2023/07/02 05:42:46;;;;;;;24.05;9.00;;;;;;;21.11;60.62;99422.00;4874022;29;20040;-81
2023/07/02 05:45:13;;;;;;;26.08;8.75;;;;;;;21.08;60.97;99408.94;4885492;29;20044;-81
2023/07/02 05:47:39;;;;;;;39.00;9.27;;;;;;;21.11;60.21;99414.72;4888469;29;20084;-81
2023/07/02 05:50:07;;;;;;;23.90;8.07;;;;;;;21.17;60.39;99415.78;4897463;29;20108;-81
2023/07/02 05:52:34;;;;;;;25.83;8.80;;;;;;;21.18;60.34;99426.34;4855182;29;20135;-82
2023/07/02 05:55:01;;;;;;;28.48;9.43;;;;;;;21.17;60.07;99416.59;4888508;29;20642;-82
2023/07/02 05:57:28;;;;;;;30.00;9.93;;;;;;;21.19;59.91;99422.59;4873188;29;20477;-82
2023/07/02 05:59:54;;;;;;;25.35;9.10;;;;;;;21.16;59.61;99414.91;4885767;29;20390;-82
2023/07/02 06:02:21;;;;;;;25.50;9.40;;;;;;;21.25;59.44;99427.13;4847630;29;20115;-83
2023/07/02 06:04:52;;;;;;;27.83;8.75;;;;;;;21.16;59.87;99414.09;4871288;29;20044;-80
2023/07/02 06:07:19;;;;;;;28.20;9.75;;;;;;;21.18;59.71;99426.34;4871339;29;20041;-81
2023/07/02 06:09:46;;;;;;;26.98;9.35;;;;;;;21.19;59.42;99425.31;4891609;29;20100;-82
2023/07/02 06:12:13;;;;;;;29.65;9.43;;;;;;;21.26;59.33;99425.25;4888572;29;20052;-80
2023/07/02 06:14:40;;;;;;;31.42;9.77;;;;;;;21.24;59.02;99428.19;4889300;29;20048;-81
2023/07/02 06:17:07;;;;;;;35.55;10.55;;;;;;;21.27;58.92;99424.22;4893356;29;20057;-81
2023/07/02 06:19:35;;;;;;;37.70;11.20;;;;;;;21.27;59.17;99431.47;4891619;29;20059;-81
2023/07/02 06:22:02;;;;;;;28.30;9.95;;;;;;;21.25;59.21;99420.91;4874678;29;20060;-81
2023/07/02 06:24:29;;;;;;;28.70;11.18;;;;;;;21.25;58.48;99429.84;4894988;29;20048;-82
2023/07/02 06:26:55;;;;;;;32.47;9.45;;;;;;;21.28;58.35;99435.84;4891737;29;20067;-81
2023/07/02 06:29:23;;;;;;;37.33;10.63;;;;;;;21.28;58.24;99430.47;4885246;29;20386;-81
2023/07/02 06:31:50;;;;;;;28.70;9.90;;;;;;;21.31;57.95;99430.03;4890126;29;21201;-82
2023/07/02 06:34:17;;;;;;;34.38;11.80;;;;;;;21.33;58.13;99441.44;4882848;29;20048;-81
2023/07/02 06:36:44;;;;;;;31.98;11.73;;;;;;;21.35;57.78;99450.16;4889391;29;20152;-81
2023/07/02 06:39:10;;;;;;;42.42;11.45;;;;;;;21.37;57.18;99450.75;4907885;29;20048;-82
2023/07/02 06:41:37;;;;;;;34.90;11.13;;;;;;;21.34;56.06;99454.72;4873638;29;20136;-81
2023/07/02 06:44:04;;;;;;;38.03;11.50;;;;;;;21.32;56.26;99450.56;4876281;29;20076;-81
2023/07/02 06:46:32;;;;;;;34.65;11.50;;;;;;;21.30;56.21;99468.88;4878018;29;20067;-81
2023/07/02 06:48:59;;;;;;;38.78;13.68;;;;;;;21.24;55.15;99462.44;4891176;29;20052;-81
2023/07/02 06:51:26;;;;;;;43.53;12.55;;;;;;;21.29;55.59;99459.94;4870943;29;20786;-82
2023/07/02 06:53:53;;;;;;;39.03;12.65;;;;;;;21.32;55.77;99456.81;4876181;29;20036;-82
2023/07/02 06:56:20;;;;;;;41.10;13.00;;;;;;;21.33;55.19;99457.66;4891661;29;20052;-81
2023/07/02 06:58:47;;;;;;;33.47;12.45;;;;;;;21.27;54.47;99462.03;4875441;29;20044;-81
2023/07/02 07:01:14;;;;;;;36.78;12.38;;;;;;;21.32;54.72;99454.13;4887000;29;20053;-82
2023/07/02 07:03:41;;;;;;;41.85;12.95;;;;;;;21.27;54.55;99474.69;4870067;29;20059;-81
2023/07/02 07:06:07;;;;;;;39.97;13.35;;;;;;;21.29;54.47;99462.63;4863455;29;20112;-82
2023/07/02 07:08:37;;;;;;;39.28;12.25;;;;;;;21.29;54.47;99459.09;4893519;29;20111;-82
2023/07/02 07:11:04;;;;;;;35.90;12.80;;;;;;;21.29;54.71;99459.94;4865494;29;20116;-82
2023/07/02 07:13:31;;;;;;;40.47;12.98;;;;;;;21.31;54.76;99463.25;4856113;29;21370;-81
2023/07/02 07:15:57;;;;;;;44.58;13.20;;;;;;;21.28;54.53;99455.59;4892969;29;20051;-81
2023/07/02 07:18:24;;;;;;;43.15;13.60;;;;;;;21.30;54.36;99458.91;4871023;29;20049;-81
2023/07/02 07:20:52;;;;;;;33.40;12.90;;;;;;;21.35;54.65;99459.09;4896625;29;20094;-81
2023/07/02 07:23:19;;;;;;;44.05;12.77;;;;;;;21.32;54.11;99464.94;4884773;29;20052;-81
2023/07/02 07:25:46;;;;;;;39.60;13.07;;;;;;;21.35;54.23;99459.09;4871985;29;20100;-81
2023/07/02 07:28:15;;;;;;;45.67;13.55;;;;;;;21.39;54.41;99468.44;4874139;29;20064;-82
2023/07/02 07:30:42;;;;;;;38.97;13.40;;;;;;;21.41;54.08;99466.34;4891272;29;20040;-82
2023/07/02 07:33:09;;;;;;;36.95;13.25;;;;;;;21.49;54.39;99472.56;4877260;29;20097;-81
2023/07/02 07:35:36;;;;;;;42.58;13.20;;;;;;;21.46;54.18;99474.63;4878112;29;20060;-81
2023/07/02 07:38:03;;;;;;;41.38;13.05;;;;;;;21.31;52.55;99465.13;4884041;29;21684;-82
2023/07/02 07:40:30;;;;;;;39.67;13.75;;;;;;;21.41;53.15;99466.34;4888438;29;20048;-82
2023/07/02 07:42:57;;;;;;;47.40;14.38;;;;;;;21.46;53.30;99465.72;4893528;29;20044;-81
2023/07/02 07:45:24;;;;;;;42.97;14.00;;;;;;;21.52;52.86;99469.41;4889618;29;20056;-82
2023/07/02 07:47:50;;;;;;;45.63;14.77;;;;;;;21.50;52.18;99474.19;4858202;29;20040;-81
2023/07/02 07:50:18;;;;;;;40.33;14.70;;;;;;;21.48;52.45;99470.91;4890443;29;20560;-81
2023/07/02 07:52:44;;;;;;;37.95;13.70;;;;;;;21.49;52.42;99469.84;4886898;29;20774;-81
2023/07/02 07:55:11;;;;;;;44.92;14.60;;;;;;;21.52;52.82;99464.00;4888467;29;20661;-81
2023/07/02 07:57:38;;;;;;;45.08;15.00;;;;;;;21.55;52.67;99461.72;4888584;29;20059;-81
2023/07/02 08:00:11;;;;;;;42.28;15.60;;;;;;;21.63;52.38;99466.03;4885991;29;20068;-82
2023/07/02 08:02:47;;;;;;;39.75;15.00;;;;;;;21.65;52.11;99455.81;4887394;29;20059;-81
2023/07/02 08:05:14;;;;;;;44.95;16.67;;;;;;;21.68;52.10;99452.72;4870447;29;20052;-82
2023/07/02 08:07:41;;;;;;;51.10;17.85;;;;;;;21.74;51.66;99449.13;4886724;29;20044;-82
2023/07/02 08:10:08;;;;;;;54.00;18.75;;;;;;;21.80;51.73;99463.63;4878274;29;20109;-81
2023/07/02 08:12:35;;;;;;;46.92;17.05;;;;;;;21.76;51.07;99455.16;4861908;29;20056;-81
2023/07/02 08:15:02;;;;;;;49.75;17.88;;;;;;;21.85;50.98;99447.59;4882408;29;20480;-81
2023/07/02 08:17:30;;;;;;;53.10;18.50;;;;;;;21.86;50.30;99447.38;4868713;29;20101;-80
2023/07/02 08:19:57;;;;;;;47.20;16.50;;;;;;;21.87;50.04;99448.22;4883527;29;20044;-81
2023/07/02 08:22:24;;;;;;;56.25;17.33;;;;;;;21.92;50.32;99452.97;4875223;29;20056;-81
2023/07/02 08:24:51;;;;;;;53.65;18.23;;;;;;;21.93;49.89;99451.91;4893023;29;20044;-81
2023/07/02 08:27:19;;;;;;;52.78;17.17;;;;;;;21.89;49.79;99455.06;4868779;29;20072;-81
2023/07/02 08:29:47;;;;;;;52.80;16.95;;;;;;;21.89;50.06;99465.03;4889074;29;20072;-81
2023/07/02 08:32:14;;;;;;;48.92;17.75;;;;;;;21.88;50.26;99458.00;4902429;29;20120;-82
2023/07/02 08:34:41;;;;;;;52.53;17.40;;;;;;;21.89;49.63;99452.34;4885924;29;20071;-81
2023/07/02 08:37:07;;;;;;;53.28;17.55;;;;;;;21.93;49.80;99450.06;4889762;29;20048;-81
2023/07/02 08:39:35;;;;;;;50.53;17.08;;;;;;;22.04;49.88;99451.22;4863853;29;20056;-80
2023/07/02 08:42:02;;;;;;;54.33;17.60;;;;;;;22.11;49.19;99449.28;4860881;29;20106;-83
2023/07/02 08:44:29;;;;;;;48.05;17.45;;;;;;;22.07;48.93;99451.59;4876355;29;20088;-81
2023/07/02 08:46:56;;;;;;;48.60;18.75;;;;;;;22.04;49.22;99468.25;4899987;29;20045;-82
2023/07/02 08:49:23;;;;;;;51.90;17.30;;;;;;;22.03;49.50;99465.75;4889670;29;20107;-82
2023/07/02 08:51:50;;;;;;;42.65;16.25;;;;;;;22.06;49.77;99466.16;4889702;29;20100;-82
2023/07/02 08:54:18;;;;;;;50.42;17.60;;;;;;;22.13;49.05;99460.69;4893339;29;20124;-81
2023/07/02 08:56:46;;;;;;;48.50;17.52;;;;;;;22.20;48.59;99461.50;4874867;29;20476;-81
2023/07/02 08:59:13;;;;;;;50.70;16.58;;;;;;;22.21;48.67;99475.84;4889731;29;20056;-82
2023/07/02 09:01:50;;;;;;;47.35;17.75;;;;;;;22.17;48.41;99471.91;4889909;29;20060;-83
2023/07/02 09:04:19;;;;;;;50.80;17.55;;;;;;;22.24;46.57;99480.84;4894072;29;20501;-81
2023/07/02 09:06:47;;;;;;;44.10;17.00;;;;;;;22.05;47.32;99479.91;4890560;29;20047;-81
2023/07/02 09:09:14;;;;;;;46.10;15.57;;;;;;;21.99;47.74;99480.78;4880949;29;20135;-82
2023/07/02 09:11:49;;;;;;;54.13;17.70;;;;;;;21.89;48.60;99482.09;4886553;29;20060;-82
2023/07/02 09:14:27;;;;;;;51.55;15.88;;;;;;;21.94;46.96;99492.25;4891735;29;20104;-82
2023/07/02 09:17:09;;;;;;;42.75;16.13;;;;;;;21.88;47.99;99483.13;4903149;29;20481;-82
2023/07/02 09:19:37;;;;;;;50.88;17.35;;;;;;;21.99;48.35;99497.81;4886843;29;20052;-81
2023/07/02 09:22:03;;;;;;;42.70;16.48;;;;;;;22.01;48.60;99484.94;4877915;29;20644;-82
2023/07/02 09:24:31;;;;;;;45.33;17.10;;;;;;;22.05;48.95;99486.13;4892842;29;20079;-81
2023/07/02 09:26:59;;;;;;;37.03;14.70;;;;;;;22.10;48.90;99482.78;4876340;29;20543;-81
2023/07/02 09:29:31;;;;;;;55.45;17.45;;;;;;;22.08;47.74;99510.03;4875217;29;20048;-82
2023/07/02 09:32:07;;;;;;;49.08;17.25;;;;;;;22.11;48.13;99500.66;4877619;29;20989;-81
2023/07/02 09:34:38;;;;;;;54.40;22.00;;;;;;;22.17;47.86;99494.38;4896229;29;20041;-81
2023/07/02 09:37:05;;;;;;;55.65;19.25;;;;;;;22.25;47.36;99490.59;4893893;29;20119;-81
2023/07/02 09:39:34;;;;;;;61.83;20.13;;;;;;;22.28;47.21;99500.97;4875001;29;20107;-82
2023/07/02 09:42:05;;;;;;;57.33;18.63;;;;;;;22.25;47.12;99502.25;4875862;29;20063;-81
2023/07/02 09:44:33;;;;;;;53.53;18.77;;;;;;;22.17;46.66;99499.78;4887369;29;20052;-81
2023/07/02 09:47:05;;;;;;;56.97;20.40;;;;;;;22.10;46.80;99486.28;4888861;29;20037;-82
2023/07/02 09:49:41;;;;;;;57.10;19.33;;;;;;;22.07;46.86;99492.16;4878759;29;20055;-81
2023/07/02 09:52:09;;;;;;;54.60;20.42;;;;;;;22.14;46.94;99473.19;4875759;29;20616;-81
2023/07/02 09:54:37;;;;;;;51.20;18.45;;;;;;;22.20;47.07;99485.84;4888224;29;20116;-81
2023/07/02 09:57:05;;;;;;;56.45;19.33;;;;;;;22.23;46.05;99489.97;4875645;29;20238;-81
2023/07/02 09:59:33;;;;;;;56.17;18.90;;;;;;;22.16;46.59;99497.28;4889818;29;20045;-81
2023/07/02 10:02:00;;;;;;;52.05;18.30;;;;;;;22.08;45.77;99491.13;4885920;29;20045;-81
2023/07/02 10:04:27;;;;;;;51.38;18.77;;;;;;;22.06;46.08;99489.69;4874275;29;20612;-81
2023/07/02 10:06:55;;;;;;;56.15;19.02;;;;;;;22.09;45.72;99489.25;4891839;29;20123;-81
2023/07/02 10:09:43;;;;;;;49.75;17.70;;;;;;;21.99;45.53;99491.59;4875535;29;20037;-82
2023/07/02 10:12:19;;;;;;;46.28;17.77;;;;;;;22.06;46.12;99490.50;4893425;29;20052;-82
2023/07/02 10:14:47;;;;;;;51.20;18.90;;;;;;;22.16;46.28;99481.91;4875218;29;20057;-81
2023/07/02 10:17:30;;;;;;;54.78;18.23;;;;;;;22.14;45.96;99485.88;4890698;29;20131;-82
2023/07/02 10:20:12;;;;;;;44.63;17.58;;;;;;;22.25;46.36;99479.78;4879483;29;20091;-81
2023/07/02 10:22:56;;;;;;;52.35;20.25;;;;;;;22.14;44.78;99497.53;4874111;29;20048;-81
2023/07/02 10:25:34;;;;;;;56.17;19.13;;;;;;;22.06;44.93;99509.44;4889594;29;20381;-82
2023/07/02 10:28:01;;;;;;;58.45;20.20;;;;;;;22.16;45.50;99484.63;4881259;29;20112;-82
2023/07/02 10:30:36;;;;;;;50.33;18.45;;;;;;;22.23;45.51;99488.09;4858568;29;20049;-81
2023/07/02 10:33:08;;;;;;;54.97;19.23;;;;;;;22.29;45.51;99487.25;4891354;29;20048;-81
2023/07/02 10:35:35;;;;;;;58.47;20.05;;;;;;;22.40;45.11;99480.28;4890977;29;20427;-81
2023/07/02 10:38:02;;;;;;;52.25;18.95;;;;;;;22.47;45.56;99486.47;4874175;29;20056;-81
2023/07/02 10:40:33;;;;;;;56.05;19.65;;;;;;;22.60;45.33;99481.97;4901251;29;20105;-80
2023/07/02 10:43:00;;;;;;;60.90;21.02;;;;;;;22.62;44.47;99479.84;4897216;29;20497;-81
2023/07/02 10:45:34;;;;;;;52.08;19.67;;;;;;;22.63;45.31;99482.34;4885613;29;20674;-82
2023/07/02 10:48:20;;;;;;;53.17;20.15;;;;;;;22.72;44.70;99481.03;4893844;29;20043;-81
2023/07/02 10:50:46;;;;;;;54.72;19.42;;;;;;;22.70;45.19;99479.59;4872221;29;20063;-80
2023/07/02 10:53:17;;;;;;;55.28;20.40;;;;;;;22.71;45.34;99487.47;4890447;29;20051;-82
2023/07/02 10:55:44;;;;;;;56.33;20.40;;;;;;;22.74;45.01;99473.50;4889139;29;20496;-82
2023/07/02 10:58:14;;;;;;;56.92;20.38;;;;;;;22.81;44.90;99491.56;4875189;29;20596;-81
2023/07/02 11:00:49;;;;;;;50.20;20.92;;;;;;;22.79;44.32;99491.75;4887991;29;20111;-82
2023/07/02 11:03:20;;;;;;;48.08;19.02;;;;;;;22.81;44.09;99486.97;4886162;29;20522;-83
2023/07/02 11:05:50;;;;;;;51.40;19.60;;;;;;;22.82;44.13;99499.47;4842728;29;20551;-81
2023/07/02 11:08:21;;;;;;;51.90;19.17;;;;;;;22.85;43.50;99490.88;4874715;29;20571;-83
2023/07/02 11:10:47;;;;;;;50.42;20.33;;;;;;;22.88;43.95;99503.97;4890656;29;20127;-82
2023/07/02 11:13:19;;;;;;;58.58;21.65;;;;;;;22.91;43.26;99497.28;4869651;29;20077;-82
2023/07/02 11:15:46;;;;;;;50.55;20.58;;;;;;;22.90;43.47;99498.34;4870530;29;20084;-82
2023/07/02 11:18:17;;;;;;;49.60;18.92;;;;;;;22.89;43.50;99481.25;4865703;29;20543;-82
2023/07/02 11:20:45;;;;;;;50.75;19.02;;;;;;;22.93;43.15;99487.88;4860240;29;20063;-82
2023/07/02 11:23:25;;;;;;;54.10;19.83;;;;;;;22.90;43.27;99485.63;4874158;29;20051;-81
2023/07/02 11:25:58;;;;;;;53.60;19.95;;;;;;;22.95;42.60;99480.38;4876297;29;20128;-81
2023/07/02 11:28:31;;;;;;;52.15;19.70;;;;;;;23.03;42.91;99481.97;4858720;29;20049;-82